Time,TemperatureF,DewpointF,PressureIn,WindDirection,WindDirectionDegrees,WindSpeedMPH,WindSpeedGustMPH,Humidity,HourlyPrecipIn,Conditions,Clouds,dailyrainin,SolarRadiationWatts/m^2,SoftwareType,DateUTC
2013-01-28 00:22:00,30.0,30.0,-100.00,SSW,213,5.0,7.0,100,0.00,,,0.00,0.000000,,2013-01-28 06:22:00,
2013-01-28 00:32:00,30.0,30.0,-100.00,SSW,213,5.0,7.0,100,0.00,,,0.00,0.000000,,2013-01-28 06:32:00,
2013-01-28 00:42:00,30.0,30.0,-100.00,SSW,213,5.0,7.0,100,0.00,,,0.00,0.000000,,2013-01-28 06:42:00,
2013-01-28 00:52:00,30.0,30.0,-100.00,SSW,213,5.0,7.0,100,0.00,,,0.00,0.000000,,2013-01-28 06:52:00,
2013-01-28 01:21:00,31.0,31.0,-100.00,SW,233,7.0,11.0,100,0.00,,,0.00,0.000000,,2013-01-28 07:21:00,
2013-01-28 01:32:00,31.0,31.0,-100.00,SW,233,7.0,11.0,100,0.00,,,0.00,0.000000,,2013-01-28 07:32:00,
2013-01-28 01:42:00,31.0,31.0,-100.00,SW,233,7.0,11.0,100,0.00,,,0.00,0.000000,,2013-01-28 07:42:00,
2013-01-28 01:51:00,31.0,31.0,-100.00,SW,233,7.0,11.0,100,0.00,,,0.00,0.000000,,2013-01-28 07:51:00,
2013-01-28 02:21:00,31.0,31.0,-100.00,SW,231,7.0,10.0,100,0.00,,,0.00,0.000000,,2013-01-28 08:21:00,
2013-01-28 02:32:00,31.0,31.0,-100.00,SW,231,7.0,10.0,100,0.00,,,0.00,0.000000,,2013-01-28 08:32:00,
2013-01-28 02:42:00,31.0,31.0,-100.00,SW,231,7.0,10.0,100,0.00,,,0.00,0.000000,,2013-01-28 08:42:00,
2013-01-28 02:52:00,31.0,31.0,-100.00,SW,231,7.0,10.0,100,0.00,,,0.00,0.000000,,2013-01-28 08:52:00,
2013-01-28 03:22:00,30.0,30.0,-100.00,WSW,247,7.0,13.0,100,0.00,,,0.00,0.000000,,2013-01-28 09:22:00,
2013-01-28 03:32:00,30.0,30.0,-100.00,WSW,247,7.0,13.0,100,0.00,,,0.00,0.000000,,2013-01-28 09:32:00,
2013-01-28 03:42:00,30.0,30.0,-100.00,WSW,247,7.0,13.0,100,0.00,,,0.00,0.000000,,2013-01-28 09:42:00,
2013-01-28 03:51:00,30.0,30.0,-100.00,WSW,247,7.0,13.0,100,0.00,,,0.00,0.000000,,2013-01-28 09:51:00,
2013-01-28 05:22:00,27.0,27.0,-100.00,WSW,247,11.0,17.0,100,-99.99,,,0.00,0.000000,,2013-01-28 11:22:00,
2013-01-28 05:32:00,27.0,27.0,-100.00,WSW,247,11.0,17.0,100,-99.99,,,0.00,0.000000,,2013-01-28 11:32:00,
2013-01-28 05:42:00,27.0,27.0,-100.00,WSW,247,11.0,17.0,100,-99.99,,,0.00,0.000000,,2013-01-28 11:42:00,
2013-01-28 05:52:00,27.0,27.0,-100.00,WSW,247,11.0,17.0,100,-99.99,,,0.00,0.000000,,2013-01-28 11:52:00,
2013-01-28 06:23:00,25.0,25.0,-100.00,WSW,246,9.0,13.0,100,0.00,,,0.00,0.000000,,2013-01-28 12:23:00,
2013-01-28 06:33:00,25.0,25.0,-100.00,WSW,246,9.0,13.0,100,0.00,,,0.00,0.000000,,2013-01-28 12:33:00,
2013-01-28 06:42:00,25.0,25.0,-100.00,WSW,246,9.0,13.0,100,0.00,,,0.00,0.000000,,2013-01-28 12:42:00,
2013-01-28 06:52:00,25.0,25.0,-100.00,WSW,246,9.0,13.0,100,0.00,,,0.00,0.000000,,2013-01-28 12:52:00,
2013-01-28 07:23:00,24.0,24.0,-100.00,South,189,4.0,11.0,100,0.00,,,0.00,0.000000,,2013-01-28 13:23:00,
2013-01-28 07:33:00,24.0,24.0,-100.00,South,189,4.0,11.0,100,0.00,,,0.00,0.000000,,2013-01-28 13:33:00,
2013-01-28 07:42:00,24.0,24.0,-100.00,South,189,4.0,11.0,100,0.00,,,0.00,0.000000,,2013-01-28 13:42:00,
2013-01-28 07:52:00,24.0,24.0,-100.00,South,189,4.0,11.0,100,0.00,,,0.00,0.000000,,2013-01-28 13:52:00,
2013-01-28 08:22:00,24.0,24.0,-100.00,SSW,213,5.0,9.0,100,0.00,,,0.00,0.000000,,2013-01-28 14:22:00,
2013-01-28 08:33:00,24.0,24.0,-100.00,SSW,213,5.0,9.0,100,0.00,,,0.00,0.000000,,2013-01-28 14:33:00,
2013-01-28 08:43:00,24.0,24.0,-100.00,SSW,213,5.0,9.0,100,0.00,,,0.00,0.000000,,2013-01-28 14:43:00,
2013-01-28 08:52:00,24.0,24.0,-100.00,SSW,213,5.0,9.0,100,0.00,,,0.00,0.000000,,2013-01-28 14:52:00,
2013-01-28 09:23:00,24.0,24.0,-100.00,SW,218,4.0,10.0,100,0.00,,,0.00,29.000000,,2013-01-28 15:23:00,
2013-01-28 09:33:00,24.0,24.0,-100.00,SW,218,4.0,10.0,100,0.00,,,0.00,29.000000,,2013-01-28 15:33:00,
2013-01-28 09:43:00,24.0,24.0,-100.00,SW,218,4.0,10.0,100,0.00,,,0.00,29.000000,,2013-01-28 15:43:00,
2013-01-28 09:52:00,24.0,24.0,-100.00,SW,218,4.0,10.0,100,0.00,,,0.00,29.000000,,2013-01-28 15:52:00,
2013-01-28 10:22:00,26.0,26.0,-100.00,WSW,254,8.0,11.0,100,0.00,,,0.00,81.000000,,2013-01-28 16:22:00,
2013-01-28 10:32:00,26.0,26.0,-100.00,WSW,254,8.0,11.0,100,0.00,,,0.00,81.000000,,2013-01-28 16:32:00,
2013-01-28 10:43:00,26.0,26.0,-100.00,WSW,254,8.0,11.0,100,0.00,,,0.00,81.000000,,2013-01-28 16:43:00,
2013-01-28 10:52:00,26.0,26.0,-100.00,WSW,254,8.0,11.0,100,0.00,,,0.00,81.000000,,2013-01-28 16:52:00,
2013-01-28 11:23:00,26.0,26.0,-100.00,West,271,13.0,17.0,100,0.00,,,0.00,168.000000,,2013-01-28 17:23:00,
2013-01-28 11:32:00,26.0,26.0,-100.00,West,271,13.0,17.0,100,0.00,,,0.00,168.000000,,2013-01-28 17:32:00,
2013-01-28 11:42:00,26.0,26.0,-100.00,West,271,13.0,17.0,100,0.00,,,0.00,168.000000,,2013-01-28 17:42:00,
2013-01-28 11:52:00,26.0,26.0,-100.00,West,271,13.0,17.0,100,0.00,,,0.00,168.000000,,2013-01-28 17:52:00,
2013-01-28 12:23:00,27.0,27.0,-100.00,WSW,257,8.0,-999.0,100,0.00,,,0.00,,,2013-01-28 18:23:00,
2013-01-28 12:33:00,27.0,27.0,-100.00,WSW,257,8.0,-999.0,100,0.00,,,0.00,,,2013-01-28 18:33:00,
2013-01-28 12:42:00,27.0,27.0,-100.00,WSW,257,8.0,-999.0,100,0.00,,,0.00,,,2013-01-28 18:42:00,
2013-01-28 12:52:00,27.0,27.0,-100.00,WSW,257,8.0,-999.0,100,0.00,,,0.00,,,2013-01-28 18:52:00,